Ryouei Maru — JL6703 — position and weather

sailwx.info

Track history (hours):
 
Tides and Currents Weather Stations Pressure Air Temp Water Temp Dewpoint Dewpoint Depression Visibility Wind Speed Wind Dir Waves Ship Positions

Ryouei Maru

Last reported at 2015-Mar-27 13:33 UTC. Time now 2015-Mar-27 20:59 UTC.
Position N 34°57' E 139°30'.

Length 95 m; draft 5 m.

Type: Cargo ship. MMSI: 431501749.

Date/timePositionNaut miles runAvg speedWind from/ knotsBaromVisibWave heightAir tempDewpointWater temp
2015-Mar-27 13:33N 34°57' E 139°30'1111.0
2015-Mar-27 12:33N 35°05' E 139°40'1110.9
2015-Mar-27 11:33N 35°15' E 139°46'1010.5
2015-Mar-27 10:33N 35°25' E 139°43'1010.1
2015-Mar-27 09:33N 35°33' E 139°51'5 4.9
2015-Mar-27 08:29N 35°37' E 139°47'0 0.0
2015-Mar-27 07:29N 35°37' E 139°47'0 0.0
2015-Mar-27 06:08N 35°37' E 139°47'0 0.0
2015-Mar-27 05:05N 35°37' E 139°47'0 0.0
2015-Mar-27 04:32N 35°37' E 139°47'0 0.0
2015-Mar-27 03:14N 35°37' E 139°47'0 0.0
2015-Mar-27 02:23N 35°37' E 139°47'0 0.0
2015-Mar-27 01:17N 35°37' E 139°47'0 0.0
2015-Mar-27 00:29N 35°37' E 139°47'4 3.7
2015-Mar-26 23:32N 35°35' E 139°51'1111.0
2015-Mar-26 22:33N 35°25' E 139°47'1111.2
2015-Mar-26 21:33N 35°14' E 139°47'1212.2
2015-Mar-26 20:33N 35°02' E 139°44'17 8.3
2015-Mar-26 18:28N 34°56' E 140°04'1010.7
2015-Mar-26 17:33N 34°60' E 140°15'13 9.7
2015-Mar-26 16:12N 35°07' E 140°28'710.5
2015-Mar-26 15:33N 35°13' E 140°33'  
2015-Mar-23 18:20N 35°50' E 140°58'1012.6
2015-Mar-23 17:34N 35°40' E 140°57'1312.4
2015-Mar-23 16:32N 35°30' E 140°47'1312.3
2015-Mar-23 15:29N 35°19' E 140°38'1511.8
2015-Mar-23 14:15N 35°08' E 140°28'912.4
2015-Mar-23 13:34N 35°02' E 140°20'1312.7
2015-Mar-23 12:31N 34°55' E 140°06'2412.0
2015-Mar-23 10:29N 34°44' E 139°40'23611.3
2015-Mar-22 13:31N 33°59' E 134°59'1313.4
2015-Mar-22 12:33N 34°12' E 134°58'1211.7
2015-Mar-22 11:31N 34°24' E 135°00'1212.2
2015-Mar-22 10:33N 34°31' E 135°12'1211.9
2015-Mar-22 09:33N 34°38' E 135°23'2 1.5
2015-Mar-22 08:15N 34°37' E 135°26'0 0.0
2015-Mar-22 07:33N 34°37' E 135°26'0 0.0
2015-Mar-22 06:27N 34°37' E 135°26'0 0.0
2015-Mar-22 03:33N 34°37' E 135°26'0 0.0
2015-Mar-22 02:33N 34°37' E 135°26'0 0.0
2015-Mar-22 01:21N 34°37' E 135°26'0 0.0
2015-Mar-22 00:21N 34°37' E 135°26'0 0.1
2015-Mar-21 23:27N 34°37' E 135°26'0 0.0
2015-Mar-21 22:33N 34°37' E 135°26'2 2.1
2015-Mar-21 21:33N 34°38' E 135°23'1010.0
2015-Mar-21 20:33N 34°31' E 135°15'1211.6
2015-Mar-21 19:33N 34°22' E 135°05'10 9.9
2015-Mar-21 18:32N 34°13' E 134°60'1111.5
2015-Mar-21 17:32N 34°02' E 135°00'  
Track history (hours):
 
Tides and Currents Weather Stations Pressure Air Temp Water Temp Dewpoint Dewpoint Depression Visibility Wind Speed Wind Dir Waves Ship Positions

Ryouei Maru

Last reported at 2015-Mar-27 13:33 UTC. Time now 2015-Mar-27 20:59 UTC.
Position N 34°57' E 139°30'.

Length 95 m; draft 5 m.

Type: Cargo ship. MMSI: 431501749.

Date/timePositionNaut miles runAvg speedWind from/ knotsBaromVisibWave heightAir tempDewpointWater temp
2015-Mar-27 13:33N 34°57' E 139°30'1111.0
2015-Mar-27 12:33N 35°05' E 139°40'1110.9
2015-Mar-27 11:33N 35°15' E 139°46'1010.5
2015-Mar-27 10:33N 35°25' E 139°43'1010.1
2015-Mar-27 09:33N 35°33' E 139°51'5 4.9
2015-Mar-27 08:29N 35°37' E 139°47'0 0.0
2015-Mar-27 07:29N 35°37' E 139°47'0 0.0
2015-Mar-27 06:08N 35°37' E 139°47'0 0.0
2015-Mar-27 05:05N 35°37' E 139°47'0 0.0
2015-Mar-27 04:32N 35°37' E 139°47'0 0.0
2015-Mar-27 03:14N 35°37' E 139°47'0 0.0
2015-Mar-27 02:23N 35°37' E 139°47'0 0.0
2015-Mar-27 01:17N 35°37' E 139°47'0 0.0
2015-Mar-27 00:29N 35°37' E 139°47'4 3.7
2015-Mar-26 23:32N 35°35' E 139°51'1111.0
2015-Mar-26 22:33N 35°25' E 139°47'1111.2
2015-Mar-26 21:33N 35°14' E 139°47'1212.2
2015-Mar-26 20:33N 35°02' E 139°44'17 8.3
2015-Mar-26 18:28N 34°56' E 140°04'1010.7
2015-Mar-26 17:33N 34°60' E 140°15'13 9.7
2015-Mar-26 16:12N 35°07' E 140°28'710.5
2015-Mar-26 15:33N 35°13' E 140°33'  
2015-Mar-23 18:20N 35°50' E 140°58'1012.6
2015-Mar-23 17:34N 35°40' E 140°57'1312.4
2015-Mar-23 16:32N 35°30' E 140°47'1312.3
2015-Mar-23 15:29N 35°19' E 140°38'1511.8
2015-Mar-23 14:15N 35°08' E 140°28'912.4
2015-Mar-23 13:34N 35°02' E 140°20'1312.7
2015-Mar-23 12:31N 34°55' E 140°06'2412.0
2015-Mar-23 10:29N 34°44' E 139°40'23611.3
2015-Mar-22 13:31N 33°59' E 134°59'1313.4
2015-Mar-22 12:33N 34°12' E 134°58'1211.7
2015-Mar-22 11:31N 34°24' E 135°00'1212.2
2015-Mar-22 10:33N 34°31' E 135°12'1211.9
2015-Mar-22 09:33N 34°38' E 135°23'2 1.5
2015-Mar-22 08:15N 34°37' E 135°26'0 0.0
2015-Mar-22 07:33N 34°37' E 135°26'0 0.0
2015-Mar-22 06:27N 34°37' E 135°26'0 0.0
2015-Mar-22 03:33N 34°37' E 135°26'0 0.0
2015-Mar-22 02:33N 34°37' E 135°26'0 0.0
2015-Mar-22 01:21N 34°37' E 135°26'0 0.0
2015-Mar-22 00:21N 34°37' E 135°26'0 0.1
2015-Mar-21 23:27N 34°37' E 135°26'0 0.0
2015-Mar-21 22:33N 34°37' E 135°26'2 2.1
2015-Mar-21 21:33N 34°38' E 135°23'1010.0
2015-Mar-21 20:33N 34°31' E 135°15'1211.6
2015-Mar-21 19:33N 34°22' E 135°05'10 9.9
2015-Mar-21 18:32N 34°13' E 134°60'1111.5
2015-Mar-21 17:32N 34°02' E 135°00'  

Dump ship's entire track history